sensor_id;sensor_type;location;lat;lon;timestamp;pressure;altitude;pressure_sealevel;temperature;humidity
64853;BME280;56050;55.558;-4.644;2022-11-20T00:01:10;100311.16;;;10.22;70.63
64853;BME280;56050;55.558;-4.644;2022-11-20T00:03:36;100312.66;;;10.23;70.67
64853;BME280;56050;55.558;-4.644;2022-11-20T00:06:03;100308.41;;;10.25;70.78
64853;BME280;56050;55.558;-4.644;2022-11-20T00:08:31;100302.66;;;10.27;70.80
64853;BME280;56050;55.558;-4.644;2022-11-20T00:10:56;100311.88;;;10.29;70.88
64853;BME280;56050;55.558;-4.644;2022-11-20T00:13:22;100296.06;;;10.31;70.93
64853;BME280;56050;55.558;-4.644;2022-11-20T00:15:48;100312.22;;;10.35;70.93
64853;BME280;56050;55.558;-4.644;2022-11-20T00:18:13;100309.47;;;10.38;70.84
64853;BME280;56050;55.558;-4.644;2022-11-20T00:20:40;100302.94;;;10.43;70.90
64853;BME280;56050;55.558;-4.644;2022-11-20T00:23:06;100307.47;;;10.49;70.80
64853;BME280;56050;55.558;-4.644;2022-11-20T00:25:33;100310.16;;;10.56;70.75
64853;BME280;56050;55.558;-4.644;2022-11-20T00:28:03;100312.41;;;10.65;70.87
64853;BME280;56050;55.558;-4.644;2022-11-20T00:30:32;100306.16;;;10.72;70.94
64853;BME280;56050;55.558;-4.644;2022-11-20T00:32:58;100300.75;;;10.79;70.87
64853;BME280;56050;55.558;-4.644;2022-11-20T00:35:23;100299.16;;;10.85;70.84
64853;BME280;56050;55.558;-4.644;2022-11-20T00:37:49;100296.81;;;10.90;70.75
64853;BME280;56050;55.558;-4.644;2022-11-20T00:40:17;100299.84;;;10.96;70.45
64853;BME280;56050;55.558;-4.644;2022-11-20T00:42:43;100299.41;;;11.01;70.69
64853;BME280;56050;55.558;-4.644;2022-11-20T00:45:09;100303.22;;;11.03;70.69
64853;BME280;56050;55.558;-4.644;2022-11-20T00:47:34;100303.19;;;11.07;70.84
64853;BME280;56050;55.558;-4.644;2022-11-20T00:50:00;100300.09;;;11.08;70.88
64853;BME280;56050;55.558;-4.644;2022-11-20T00:52:25;100296.59;;;11.11;71.21
64853;BME280;56050;55.558;-4.644;2022-11-20T00:54:52;100293.91;;;11.11;70.98
64853;BME280;56050;55.558;-4.644;2022-11-20T00:57:19;100297.72;;;11.14;71.08
64853;BME280;56050;55.558;-4.644;2022-11-20T00:59:44;100295.41;;;11.16;70.98
64853;BME280;56050;55.558;-4.644;2022-11-20T01:02:10;100299.63;;;11.17;70.90
64853;BME280;56050;55.558;-4.644;2022-11-20T01:04:35;100298.84;;;11.20;71.01
64853;BME280;56050;55.558;-4.644;2022-11-20T01:07:01;100296.50;;;11.22;70.89
64853;BME280;56050;55.558;-4.644;2022-11-20T01:09:28;100299.97;;;11.23;70.93
64853;BME280;56050;55.558;-4.644;2022-11-20T01:11:53;100288.75;;;11.24;70.89
64853;BME280;56050;55.558;-4.644;2022-11-20T01:14:19;100288.03;;;11.24;70.95
64853;BME280;56050;55.558;-4.644;2022-11-20T01:16:48;100287.22;;;11.27;70.89
64853;BME280;56050;55.558;-4.644;2022-11-20T01:19:17;100284.13;;;11.28;70.94
64853;BME280;56050;55.558;-4.644;2022-11-20T01:21:44;100278.31;;;11.30;70.82
64853;BME280;56050;55.558;-4.644;2022-11-20T01:24:12;100270.22;;;11.30;70.79
64853;BME280;56050;55.558;-4.644;2022-11-20T01:26:40;100259.44;;;11.30;70.87
64853;BME280;56050;55.558;-4.644;2022-11-20T01:29:08;100269.47;;;11.29;70.81
64853;BME280;56050;55.558;-4.644;2022-11-20T01:31:36;100260.19;;;11.30;70.86
64853;BME280;56050;55.558;-4.644;2022-11-20T01:34:09;100252.88;;;11.31;70.97
64853;BME280;56050;55.558;-4.644;2022-11-20T01:36:36;100255.56;;;11.31;70.87
64853;BME280;56050;55.558;-4.644;2022-11-20T01:39:14;100247.09;;;11.32;70.87
64853;BME280;56050;55.558;-4.644;2022-11-20T01:41:41;100252.50;;;11.32;70.71
64853;BME280;56050;55.558;-4.644;2022-11-20T01:47:16;100254.44;;;11.28;70.73
64853;BME280;56050;55.558;-4.644;2022-11-20T01:49:48;100256.38;;;11.28;70.85
64853;BME280;56050;55.558;-4.644;2022-11-20T01:52:34;100260.97;;;11.31;70.74
64853;BME280;56050;55.558;-4.644;2022-11-20T01:55:07;100253.66;;;11.31;70.89
64853;BME280;56050;55.558;-4.644;2022-11-20T01:57:37;100246.34;;;11.32;70.79
64853;BME280;56050;55.558;-4.644;2022-11-20T02:00:08;100247.09;;;11.32;70.78
64853;BME280;56050;55.558;-4.644;2022-11-20T02:02:37;100250.97;;;11.31;70.81
64853;BME280;56050;55.558;-4.644;2022-11-20T02:05:14;100241.00;;;11.25;70.79
64853;BME280;56050;55.558;-4.644;2022-11-20T02:07:44;100246.03;;;11.23;70.70
64853;BME280;56050;55.558;-4.644;2022-11-20T02:10:11;100239.53;;;11.20;70.63
64853;BME280;56050;55.558;-4.644;2022-11-20T02:12:36;100234.16;;;11.16;70.59
64853;BME280;56050;55.558;-4.644;2022-11-20T02:15:20;100232.66;;;11.15;70.60
64853;BME280;56050;55.558;-4.644;2022-11-20T02:17:46;100234.19;;;11.13;70.54
64853;BME280;56050;55.558;-4.644;2022-11-20T02:20:12;100236.53;;;11.11;70.52
64853;BME280;56050;55.558;-4.644;2022-11-20T02:22:45;100235.75;;;11.10;70.34
64853;BME280;56050;55.558;-4.644;2022-11-20T02:25:14;100232.69;;;11.12;70.56
64853;BME280;56050;55.558;-4.644;2022-11-20T02:27:40;100232.69;;;11.12;70.46
64853;BME280;56050;55.558;-4.644;2022-11-20T02:30:06;100225.34;;;11.12;70.27
64853;BME280;56050;55.558;-4.644;2022-11-20T02:32:36;100238.44;;;11.14;70.29
64853;BME280;56050;55.558;-4.644;2022-11-20T02:37:57;100239.97;;;11.15;70.27
64853;BME280;56050;55.558;-4.644;2022-11-20T02:40:23;100233.38;;;11.16;70.14
64853;BME280;56050;55.558;-4.644;2022-11-20T02:42:55;100235.69;;;11.17;70.07
64853;BME280;56050;55.558;-4.644;2022-11-20T02:45:21;100237.59;;;11.20;69.93
64853;BME280;56050;55.558;-4.644;2022-11-20T02:47:47;100234.47;;;11.22;69.87
64853;BME280;56050;55.558;-4.644;2022-11-20T02:50:13;100231.78;;;11.22;70.08
64853;BME280;56050;55.558;-4.644;2022-11-20T02:52:38;100232.53;;;11.26;69.97
64853;BME280;56050;55.558;-4.644;2022-11-20T02:55:04;100230.19;;;11.28;69.86
64853;BME280;56050;55.558;-4.644;2022-11-20T02:57:30;100224.00;;;11.31;69.90
64853;BME280;56050;55.558;-4.644;2022-11-20T02:59:55;100217.44;;;11.32;69.82
64853;BME280;56050;55.558;-4.644;2022-11-20T03:02:21;100220.50;;;11.34;69.70
64853;BME280;56050;55.558;-4.644;2022-11-20T03:04:46;100227.81;;;11.34;69.75
64853;BME280;56050;55.558;-4.644;2022-11-20T03:07:12;100220.88;;;11.33;69.69
64853;BME280;56050;55.558;-4.644;2022-11-20T03:09:37;100217.44;;;11.32;69.72
64853;BME280;56050;55.558;-4.644;2022-11-20T03:12:02;100214.75;;;11.32;69.65
64853;BME280;56050;55.558;-4.644;2022-11-20T03:14:28;100210.09;;;11.33;69.54
64853;BME280;56050;55.558;-4.644;2022-11-20T03:16:53;100218.56;;;11.35;69.62
64853;BME280;56050;55.558;-4.644;2022-11-20T03:19:20;100215.09;;;11.34;69.49
64853;BME280;56050;55.558;-4.644;2022-11-20T03:21:45;100203.13;;;11.35;69.56
64853;BME280;56050;55.558;-4.644;2022-11-20T03:24:11;100203.50;;;11.37;69.39
64853;BME280;56050;55.558;-4.644;2022-11-20T03:26:36;100195.41;;;11.37;69.38
64853;BME280;56050;55.558;-4.644;2022-11-20T03:29:04;100196.94;;;11.38;69.46
64853;BME280;56050;55.558;-4.644;2022-11-20T03:31:32;100189.56;;;11.42;69.20
64853;BME280;56050;55.558;-4.644;2022-11-20T03:33:58;100186.88;;;11.42;69.21
64853;BME280;56050;55.558;-4.644;2022-11-20T03:36:25;100193.81;;;11.43;69.11
64853;BME280;56050;55.558;-4.644;2022-11-20T03:38:50;100184.56;;;11.41;69.21
64853;BME280;56050;55.558;-4.644;2022-11-20T03:41:23;100181.16;;;11.37;69.37
64853;BME280;56050;55.558;-4.644;2022-11-20T03:43:53;100188.47;;;11.36;69.31
64853;BME280;56050;55.558;-4.644;2022-11-20T03:46:19;100184.66;;;11.34;69.41
64853;BME280;56050;55.558;-4.644;2022-11-20T03:48:45;100184.66;;;11.34;69.42
64853;BME280;56050;55.558;-4.644;2022-11-20T03:51:22;100183.91;;;11.33;69.29
64853;BME280;56050;55.558;-4.644;2022-11-20T03:53:48;100188.53;;;11.33;69.33
64853;BME280;56050;55.558;-4.644;2022-11-20T03:56:17;100184.66;;;11.34;69.38
64853;BME280;56050;55.558;-4.644;2022-11-20T03:58:43;100183.50;;;11.35;69.11
64853;BME280;56050;55.558;-4.644;2022-11-20T04:01:14;100181.19;;;11.33;68.98
64853;BME280;56050;55.558;-4.644;2022-11-20T04:03:41;100175.41;;;11.35;68.98
64853;BME280;56050;55.558;-4.644;2022-11-20T04:06:12;100171.53;;;11.36;68.89
64853;BME280;56050;55.558;-4.644;2022-11-20T04:08:39;100184.63;;;11.37;68.82
64853;BME280;56050;55.558;-4.644;2022-11-20T04:11:18;100168.84;;;11.36;68.59
64853;BME280;56050;55.558;-4.644;2022-11-20T04:13:58;100168.47;;;11.34;68.57
64853;BME280;56050;55.558;-4.644;2022-11-20T04:16:25;100171.94;;;11.34;68.24
64853;BME280;56050;55.558;-4.644;2022-11-20T04:18:56;100174.28;;;11.32;68.12
64853;BME280;56050;55.558;-4.644;2022-11-20T04:21:22;100170.44;;;11.30;68.20
64853;BME280;56050;55.558;-4.644;2022-11-20T04:23:48;100170.44;;;11.30;68.12
64853;BME280;56050;55.558;-4.644;2022-11-20T04:26:14;100165.81;;;11.30;68.05
64853;BME280;56050;55.558;-4.644;2022-11-20T04:28:40;100171.22;;;11.30;68.19
64853;BME280;56050;55.558;-4.644;2022-11-20T04:31:11;100176.59;;;11.30;68.21
64853;BME280;56050;55.558;-4.644;2022-11-20T04:33:37;100183.94;;;11.30;68.11
64853;BME280;56050;55.558;-4.644;2022-11-20T04:36:25;100180.88;;;11.28;67.89
64853;BME280;56050;55.558;-4.644;2022-11-20T04:39:01;100183.56;;;11.28;68.13
64853;BME280;56050;55.558;-4.644;2022-11-20T04:41:30;100181.28;;;11.26;67.78
64853;BME280;56050;55.558;-4.644;2022-11-20T04:43:58;100190.19;;;11.23;67.67
64853;BME280;56050;55.558;-4.644;2022-11-20T04:46:29;100185.19;;;11.21;67.24
64853;BME280;56050;55.558;-4.644;2022-11-20T04:48:55;100189.06;;;11.20;66.99
64853;BME280;56050;55.558;-4.644;2022-11-20T04:51:21;100193.34;;;11.18;67.10
64853;BME280;56050;55.558;-4.644;2022-11-20T04:53:47;100193.72;;;11.16;67.23
64853;BME280;56050;55.558;-4.644;2022-11-20T04:56:13;100184.13;;;11.15;67.21
64853;BME280;56050;55.558;-4.644;2022-11-20T04:58:39;100186.41;;;11.17;67.18
64853;BME280;56050;55.558;-4.644;2022-11-20T05:01:25;100186.81;;;11.15;67.22
64853;BME280;56050;55.558;-4.644;2022-11-20T05:03:51;100188.31;;;11.16;67.24
64853;BME280;56050;55.558;-4.644;2022-11-20T05:06:19;100179.88;;;11.14;67.18
64853;BME280;56050;55.558;-4.644;2022-11-20T05:08:44;100183.38;;;11.11;67.22
64853;BME280;56050;55.558;-4.644;2022-11-20T05:11:12;100179.56;;;11.09;67.23
64853;BME280;56050;55.558;-4.644;2022-11-20T05:13:38;100177.25;;;11.07;67.17
64853;BME280;56050;55.558;-4.644;2022-11-20T05:16:12;100178.03;;;11.08;67.16
64853;BME280;56050;55.558;-4.644;2022-11-20T05:18:39;100172.25;;;11.09;67.08
64853;BME280;56050;55.558;-4.644;2022-11-20T05:21:05;100178.78;;;11.08;66.87
64853;BME280;56050;55.558;-4.644;2022-11-20T05:23:32;100175.31;;;11.08;67.07
64853;BME280;56050;55.558;-4.644;2022-11-20T05:25:58;100171.13;;;11.07;67.06
64853;BME280;56050;55.558;-4.644;2022-11-20T05:28:24;100175.31;;;11.08;67.23
64853;BME280;56050;55.558;-4.644;2022-11-20T05:30:50;100171.13;;;11.07;67.13
64853;BME280;56050;55.558;-4.644;2022-11-20T05:33:15;100162.66;;;11.05;66.93
64853;BME280;56050;55.558;-4.644;2022-11-20T05:35:41;100152.69;;;11.02;67.16
64853;BME280;56050;55.558;-4.644;2022-11-20T05:38:06;100154.66;;;10.98;67.15
64853;BME280;56050;55.558;-4.644;2022-11-20T05:40:32;100149.31;;;10.94;67.04
64853;BME280;56050;55.558;-4.644;2022-11-20T05:42:57;100158.97;;;10.92;66.89
64853;BME280;56050;55.558;-4.644;2022-11-20T05:45:23;100159.41;;;10.87;66.99
64853;BME280;56050;55.558;-4.644;2022-11-20T05:47:48;100155.97;;;10.83;67.10
64853;BME280;56050;55.558;-4.644;2022-11-20T05:50:14;100148.72;;;10.80;67.13
64853;BME280;56050;55.558;-4.644;2022-11-20T05:52:40;100149.88;;;10.79;67.25
64853;BME280;56050;55.558;-4.644;2022-11-20T05:55:06;100151.81;;;10.75;67.30
64853;BME280;56050;55.558;-4.644;2022-11-20T05:57:32;100145.72;;;10.71;67.06
64853;BME280;56050;55.558;-4.644;2022-11-20T05:59:57;100137.66;;;10.67;66.96
64853;BME280;56050;55.558;-4.644;2022-11-20T06:02:23;100142.69;;;10.65;67.11
64853;BME280;56050;55.558;-4.644;2022-11-20T06:04:48;100140.38;;;10.63;66.81
64853;BME280;56050;55.558;-4.644;2022-11-20T06:07:14;100146.19;;;10.62;66.90
64853;BME280;56050;55.558;-4.644;2022-11-20T06:09:39;100135.78;;;10.60;66.77
64853;BME280;56050;55.558;-4.644;2022-11-20T06:12:05;100138.91;;;10.59;66.77
64853;BME280;56050;55.558;-4.644;2022-11-20T06:14:31;100145.06;;;10.59;66.58
64853;BME280;56050;55.558;-4.644;2022-11-20T06:16:56;100138.91;;;10.59;66.34
64853;BME280;56050;55.558;-4.644;2022-11-20T06:19:21;100143.88;;;10.60;66.10
64853;BME280;56050;55.558;-4.644;2022-11-20T06:21:48;100143.88;;;10.60;65.76
64853;BME280;56050;55.558;-4.644;2022-11-20T06:24:14;100143.13;;;10.60;65.59
64853;BME280;56050;55.558;-4.644;2022-11-20T06:26:40;100143.53;;;10.58;65.65
64853;BME280;56050;55.558;-4.644;2022-11-20T06:29:05;100145.81;;;10.60;65.76
64853;BME280;56050;55.558;-4.644;2022-11-20T06:31:31;100147.31;;;10.65;65.92
64853;BME280;56050;55.558;-4.644;2022-11-20T06:34:00;100153.81;;;10.67;65.73
64853;BME280;56050;55.558;-4.644;2022-11-20T06:36:26;100151.91;;;10.68;65.79
64853;BME280;56050;55.558;-4.644;2022-11-20T06:38:51;100158.41;;;10.70;65.80
64853;BME280;56050;55.558;-4.644;2022-11-20T06:41:19;100152.63;;;10.72;65.81
64853;BME280;56050;55.558;-4.644;2022-11-20T06:43:45;100153.00;;;10.74;65.76
64853;BME280;56050;55.558;-4.644;2022-11-20T06:46:12;100155.28;;;10.75;65.65
64853;BME280;56050;55.558;-4.644;2022-11-20T06:48:39;100159.50;;;10.76;65.59
64853;BME280;56050;55.558;-4.644;2022-11-20T06:51:06;100162.59;;;10.75;65.64
64853;BME280;56050;55.558;-4.644;2022-11-20T06:53:32;100166.84;;;10.72;65.74
64853;BME280;56050;55.558;-4.644;2022-11-20T06:55:58;100163.03;;;10.70;65.64
64853;BME280;56050;55.558;-4.644;2022-11-20T06:58:26;100169.59;;;10.69;65.56
64853;BME280;56050;55.558;-4.644;2022-11-20T07:00:52;100166.53;;;10.67;65.42
64853;BME280;56050;55.558;-4.644;2022-11-20T07:03:17;100173.09;;;10.66;65.48
64853;BME280;56050;55.558;-4.644;2022-11-20T07:05:43;100173.09;;;10.66;65.17
64853;BME280;56050;55.558;-4.644;2022-11-20T07:08:12;100171.56;;;10.65;65.37
64853;BME280;56050;55.558;-4.644;2022-11-20T07:10:37;100170.78;;;10.64;65.22
64853;BME280;56050;55.558;-4.644;2022-11-20T07:13:03;100168.50;;;10.63;65.36
64853;BME280;56050;55.558;-4.644;2022-11-20T07:15:29;100165.03;;;10.62;65.22
64853;BME280;56050;55.558;-4.644;2022-11-20T07:17:55;100167.38;;;10.60;65.27
64853;BME280;56050;55.558;-4.644;2022-11-20T07:20:23;100177.38;;;10.59;65.45
64853;BME280;56050;55.558;-4.644;2022-11-20T07:22:53;100171.25;;;10.55;65.56
64853;BME280;56050;55.558;-4.644;2022-11-20T07:25:19;100175.88;;;10.55;65.57
64853;BME280;56050;55.558;-4.644;2022-11-20T07:27:45;100181.66;;;10.53;65.54
64853;BME280;56050;55.558;-4.644;2022-11-20T07:30:11;100176.31;;;10.50;65.27
64853;BME280;56050;55.558;-4.644;2022-11-20T07:32:36;100184.81;;;10.45;65.42
64853;BME280;56050;55.558;-4.644;2022-11-20T07:35:02;100191.41;;;10.40;65.50
64853;BME280;56050;55.558;-4.644;2022-11-20T07:37:27;100186.81;;;10.37;65.48
64853;BME280;56050;55.558;-4.644;2022-11-20T07:39:53;100188.38;;;10.35;65.40
64853;BME280;56050;55.558;-4.644;2022-11-20T07:42:18;100204.91;;;10.33;65.52
64853;BME280;56050;55.558;-4.644;2022-11-20T07:44:44;100193.00;;;10.31;65.34
64853;BME280;56050;55.558;-4.644;2022-11-20T07:47:09;100186.50;;;10.28;65.37
64853;BME280;56050;55.558;-4.644;2022-11-20T07:49:34;100189.19;;;10.28;65.38
64853;BME280;56050;55.558;-4.644;2022-11-20T07:52:00;100193.78;;;10.28;65.50
64853;BME280;56050;55.558;-4.644;2022-11-20T07:54:25;100200.72;;;10.29;65.59
64853;BME280;56050;55.558;-4.644;2022-11-20T07:56:51;100201.84;;;10.31;65.44
64853;BME280;56050;55.558;-4.644;2022-11-20T07:59:16;100206.47;;;10.31;65.35
64853;BME280;56050;55.558;-4.644;2022-11-20T08:01:42;100195.69;;;10.31;65.23
64853;BME280;56050;55.558;-4.644;2022-11-20T08:04:08;100211.47;;;10.32;65.33
64853;BME280;56050;55.558;-4.644;2022-11-20T08:06:36;100211.81;;;10.34;65.29
64853;BME280;56050;55.558;-4.644;2022-11-20T08:09:02;100211.41;;;10.36;65.42
64853;BME280;56050;55.558;-4.644;2022-11-20T08:11:27;100216.44;;;10.37;65.29
64853;BME280;56050;55.558;-4.644;2022-11-20T08:14:11;100214.44;;;10.41;65.30
64853;BME280;56050;55.558;-4.644;2022-11-20T08:16:44;100209.06;;;10.41;65.49
64853;BME280;56050;55.558;-4.644;2022-11-20T08:19:11;100213.31;;;10.39;65.31
64853;BME280;56050;55.558;-4.644;2022-11-20T08:21:37;100211.06;;;10.34;65.19
64853;BME280;56050;55.558;-4.644;2022-11-20T08:24:02;100223.41;;;10.28;64.75
64853;BME280;56050;55.558;-4.644;2022-11-20T08:26:28;100223.44;;;10.24;64.60
64853;BME280;56050;55.558;-4.644;2022-11-20T08:28:55;100219.22;;;10.20;64.66
64853;BME280;56050;55.558;-4.644;2022-11-20T08:31:21;100216.59;;;10.13;64.41
64853;BME280;56050;55.558;-4.644;2022-11-20T08:33:47;100221.59;;;10.07;64.32
64853;BME280;56050;55.558;-4.644;2022-11-20T08:36:12;100220.84;;;10.03;64.40
64853;BME280;56050;55.558;-4.644;2022-11-20T08:38:38;100222.81;;;9.99;64.58
64853;BME280;56050;55.558;-4.644;2022-11-20T08:41:05;100222.06;;;9.95;64.69
64853;BME280;56050;55.558;-4.644;2022-11-20T08:43:52;100222.47;;;9.93;64.69
64853;BME280;56050;55.558;-4.644;2022-11-20T08:46:18;100214.78;;;9.92;64.44
64853;BME280;56050;55.558;-4.644;2022-11-20T08:48:44;100226.31;;;9.89;64.42
64853;BME280;56050;55.558;-4.644;2022-11-20T08:51:11;100227.50;;;9.84;64.74
64853;BME280;56050;55.558;-4.644;2022-11-20T08:53:37;100228.66;;;9.83;64.59
64853;BME280;56050;55.558;-4.644;2022-11-20T08:56:02;100228.28;;;9.81;64.80
64853;BME280;56050;55.558;-4.644;2022-11-20T08:58:28;100234.44;;;9.82;64.70
64853;BME280;56050;55.558;-4.644;2022-11-20T09:00:53;100237.50;;;9.84;64.74
64853;BME280;56050;55.558;-4.644;2022-11-20T09:03:19;100234.81;;;9.84;64.66
64853;BME280;56050;55.558;-4.644;2022-11-20T09:05:44;100235.97;;;9.83;64.87
64853;BME280;56050;55.558;-4.644;2022-11-20T09:08:10;100240.59;;;9.82;64.82
64853;BME280;56050;55.558;-4.644;2022-11-20T09:10:35;100245.97;;;9.82;64.58
64853;BME280;56050;55.558;-4.644;2022-11-20T09:13:01;100242.50;;;9.82;64.75
64853;BME280;56050;55.558;-4.644;2022-11-20T09:15:28;100248.25;;;9.84;64.70
64853;BME280;56050;55.558;-4.644;2022-11-20T09:17:53;100245.19;;;9.85;64.28
64853;BME280;56050;55.558;-4.644;2022-11-20T09:20:19;100249.03;;;9.84;64.24
64853;BME280;56050;55.558;-4.644;2022-11-20T09:22:45;100241.31;;;9.86;64.23
64853;BME280;56050;55.558;-4.644;2022-11-20T09:25:10;100243.22;;;9.89;64.10
64853;BME280;56050;55.558;-4.644;2022-11-20T09:27:36;100244.34;;;9.95;64.18
64853;BME280;56050;55.558;-4.644;2022-11-20T09:30:02;100245.84;;;10.00;64.16
64853;BME280;56050;55.558;-4.644;2022-11-20T09:32:27;100237.41;;;10.01;64.13
64853;BME280;56050;55.558;-4.644;2022-11-20T09:34:53;100245.84;;;10.03;63.90
64853;BME280;56050;55.558;-4.644;2022-11-20T09:37:18;100250.06;;;10.04;63.98
64853;BME280;56050;55.558;-4.644;2022-11-20T09:39:44;100240.44;;;10.07;63.95
64853;BME280;56050;55.558;-4.644;2022-11-20T09:42:22;100238.13;;;10.09;63.91
64853;BME280;56050;55.558;-4.644;2022-11-20T09:52:58;100242.69;;;10.19;64.26
64853;BME280;56050;55.558;-4.644;2022-11-20T09:55:29;100235.78;;;10.18;64.15
64853;BME280;56050;55.558;-4.644;2022-11-20T09:57:57;100240.41;;;10.18;64.12
64853;BME280;56050;55.558;-4.644;2022-11-20T10:00:24;100238.84;;;10.20;64.29
64853;BME280;56050;55.558;-4.644;2022-11-20T10:03:14;100231.13;;;10.22;64.28
64853;BME280;56050;55.558;-4.644;2022-11-20T10:05:52;100243.03;;;10.28;64.42
64853;BME280;56050;55.558;-4.644;2022-11-20T10:08:45;100229.53;;;10.35;64.30
64853;BME280;56050;55.558;-4.644;2022-11-20T10:11:33;100224.84;;;10.43;64.28
64853;BME280;56050;55.558;-4.644;2022-11-20T10:14:17;100224.78;;;10.50;64.29
64853;BME280;56050;55.558;-4.644;2022-11-20T10:19:44;100217.81;;;10.52;64.06
64853;BME280;56050;55.558;-4.644;2022-11-20T10:25:14;100217.03;;;10.55;64.16
64853;BME280;56050;55.558;-4.644;2022-11-20T10:32:37;100227.34;;;10.64;64.21
64853;BME280;56050;55.558;-4.644;2022-11-20T10:35:05;100226.19;;;10.69;64.16
64853;BME280;56050;55.558;-4.644;2022-11-20T10:37:35;100226.91;;;10.73;64.16
64853;BME280;56050;55.558;-4.644;2022-11-20T10:40:20;100239.94;;;10.78;64.01
64853;BME280;56050;55.558;-4.644;2022-11-20T10:42:53;100236.06;;;10.82;63.94
64853;BME280;56050;55.558;-4.644;2022-11-20T10:47:50;100241.34;;;10.93;64.00
64853;BME280;56050;55.558;-4.644;2022-11-20T10:50:19;100240.13;;;10.97;63.82
64853;BME280;56050;55.558;-4.644;2022-11-20T10:58:15;100232.03;;;11.01;63.53
64853;BME280;56050;55.558;-4.644;2022-11-20T11:00:43;100235.84;;;11.03;63.18
64853;BME280;56050;55.558;-4.644;2022-11-20T11:03:34;100234.72;;;11.01;63.17
64853;BME280;56050;55.558;-4.644;2022-11-20T11:06:54;100247.41;;;11.04;63.26
64853;BME280;56050;55.558;-4.644;2022-11-20T11:08:56;100237.75;;;11.06;63.08
64853;BME280;56050;55.558;-4.644;2022-11-20T11:11:27;100241.63;;;11.02;62.80
64853;BME280;56050;55.558;-4.644;2022-11-20T11:14:08;100243.19;;;10.99;63.14
64853;BME280;56050;55.558;-4.644;2022-11-20T11:16:33;100248.53;;;11.03;62.97
64853;BME280;56050;55.558;-4.644;2022-11-20T11:19:06;100245.47;;;11.04;63.07
64853;BME280;56050;55.558;-4.644;2022-11-20T11:21:31;100237.31;;;11.08;63.06
64853;BME280;56050;55.558;-4.644;2022-11-20T11:24:04;100241.16;;;11.10;63.08
64853;BME280;56050;55.558;-4.644;2022-11-20T11:26:30;100241.13;;;11.14;63.25
64853;BME280;56050;55.558;-4.644;2022-11-20T11:28:57;100238.44;;;11.14;63.03
64853;BME280;56050;55.558;-4.644;2022-11-20T11:31:31;100244.97;;;11.13;63.13
64853;BME280;56050;55.558;-4.644;2022-11-20T11:34:07;100247.66;;;11.13;63.09
64853;BME280;56050;55.558;-4.644;2022-11-20T11:36:36;100247.66;;;11.13;62.99
64853;BME280;56050;55.558;-4.644;2022-11-20T11:39:03;100249.63;;;11.12;62.40
64853;BME280;56050;55.558;-4.644;2022-11-20T11:41:32;100254.25;;;11.12;62.51
64853;BME280;56050;55.558;-4.644;2022-11-20T11:44:17;100247.31;;;11.11;62.78
64853;BME280;56050;55.558;-4.644;2022-11-20T11:47:04;100251.53;;;11.12;62.58
64853;BME280;56050;55.558;-4.644;2022-11-20T11:49:30;100262.72;;;11.10;62.39
64853;BME280;56050;55.558;-4.644;2022-11-20T11:52:15;100255.06;;;11.05;62.44
64853;BME280;56050;55.558;-4.644;2022-11-20T11:54:53;100250.47;;;11.02;62.50
64853;BME280;56050;55.558;-4.644;2022-11-20T11:57:32;100250.13;;;11.00;62.33
64853;BME280;56050;55.558;-4.644;2022-11-20T12:03:21;100242.81;;;10.97;62.65
64853;BME280;56050;55.558;-4.644;2022-11-20T12:05:30;100245.84;;;11.03;62.73
64853;BME280;56050;55.558;-4.644;2022-11-20T12:16:14;100249.94;;;11.18;62.29
64853;BME280;56050;55.558;-4.644;2022-11-20T12:18:41;100239.56;;;11.16;62.43
64853;BME280;56050;55.558;-4.644;2022-11-20T12:21:19;100247.28;;;11.14;61.97
64853;BME280;56050;55.558;-4.644;2022-11-20T12:40:58;100244.88;;;11.24;62.08
64853;BME280;56050;55.558;-4.644;2022-11-20T12:43:33;100237.63;;;11.17;61.53
64853;BME280;56050;55.558;-4.644;2022-11-20T12:51:39;100232.03;;;10.97;62.13
64853;BME280;56050;55.558;-4.644;2022-11-20T13:00:01;100235.00;;;11.10;62.34
64853;BME280;56050;55.558;-4.644;2022-11-20T13:03:06;100237.28;;;11.11;62.35
64853;BME280;56050;55.558;-4.644;2022-11-20T13:05:51;100233.44;;;11.12;62.25
64853;BME280;56050;55.558;-4.644;2022-11-20T13:08:24;100231.94;;;11.08;62.15
64853;BME280;56050;55.558;-4.644;2022-11-20T13:11:14;100231.22;;;11.04;62.34
64853;BME280;56050;55.558;-4.644;2022-11-20T13:14:04;100231.66;;;10.99;62.28
64853;BME280;56050;55.558;-4.644;2022-11-20T13:16:47;100231.25;;;11.00;62.55
64853;BME280;56050;55.558;-4.644;2022-11-20T13:19:16;100239.66;;;11.06;62.49
64853;BME280;56050;55.558;-4.644;2022-11-20T13:21:48;100238.84;;;11.12;62.61
64853;BME280;56050;55.558;-4.644;2022-11-20T13:27:17;100232.56;;;11.23;62.46
64853;BME280;56050;55.558;-4.644;2022-11-20T13:29:46;100241.78;;;11.25;62.29
64853;BME280;56050;55.558;-4.644;2022-11-20T13:32:20;100237.63;;;11.17;62.40
64853;BME280;56050;55.558;-4.644;2022-11-20T13:34:58;100238.06;;;11.12;62.58
64853;BME280;56050;55.558;-4.644;2022-11-20T13:37:35;100237.31;;;11.08;62.75
64853;BME280;56050;55.558;-4.644;2022-11-20T13:42:36;100240.41;;;11.10;62.83
64853;BME280;56050;55.558;-4.644;2022-11-20T13:45:09;100234.25;;;11.09;63.01
64853;BME280;56050;55.558;-4.644;2022-11-20T13:47:36;100231.94;;;11.08;62.93
64853;BME280;56050;55.558;-4.644;2022-11-20T13:50:04;100233.13;;;11.07;62.97
64853;BME280;56050;55.558;-4.644;2022-11-20T13:57:55;100246.22;;;11.05;62.88
64853;BME280;56050;55.558;-4.644;2022-11-20T14:00:24;100243.16;;;11.03;62.95
64853;BME280;56050;55.558;-4.644;2022-11-20T14:03:41;100244.31;;;11.02;62.98
64853;BME280;56050;55.558;-4.644;2022-11-20T14:06:04;100238.97;;;10.98;63.14
64853;BME280;56050;55.558;-4.644;2022-11-20T14:08:51;100238.59;;;10.96;63.14
64853;BME280;56050;55.558;-4.644;2022-11-20T14:11:22;100233.63;;;10.95;63.10
64853;BME280;56050;55.558;-4.644;2022-11-20T14:16:22;100239.00;;;10.95;63.16